Time;durP1;ratioP1;P1;durP2;ratioP2;P2;SDS_P1;SDS_P2;PMS_P1;PMS_P2;Temp;Humidity;BMP_temperature;BMP_pressure;BME280_temperature;BME280_humidity;BME280_pressure;Samples;Min_cycle;Max_cycle;Signal;HPM_P1;HPM_P2
2022/04/04 00:00:06;;;;;;;4.55;2.65;;;7.40;99.90;;;;;;5064563;28;20037;-73
2022/04/04 00:02:32;;;;;;;4.10;2.90;;;6.70;99.90;;;;;;5033995;28;20048;-72
2022/04/04 00:04:58;;;;;;;5.82;2.85;;;6.70;99.90;;;;;;5051315;28;20057;-73
2022/04/04 00:07:24;;;;;;;6.05;3.30;;;6.40;99.90;;;;;;5017743;28;20108;-73
2022/04/04 00:09:50;;;;;;;4.50;3.00;;;6.60;99.90;;;;;;5033844;28;20048;-73
2022/04/04 00:12:16;;;;;;;5.50;2.70;;;6.40;99.90;;;;;;5032664;28;20037;-73
2022/04/04 00:14:43;;;;;;;3.75;2.85;;;6.40;99.90;;;;;;5017593;28;20041;-73
2022/04/04 00:17:09;;;;;;;5.05;2.70;;;6.60;99.90;;;;;;5034212;28;20037;-73
2022/04/04 00:19:37;;;;;;;4.43;3.47;;;6.30;99.90;;;;;;5050736;28;20105;-72
2022/04/04 00:22:03;;;;;;;6.47;3.10;;;6.20;99.90;;;;;;5016323;28;20128;-74
2022/04/04 00:24:29;;;;;;;7.47;3.53;;;6.20;99.90;;;;;;5050676;28;20128;-74
2022/04/04 00:26:55;;;;;;;5.70;3.03;;;6.20;99.90;;;;;;5050484;28;20048;-73
2022/04/04 00:29:20;;;;;;;5.90;3.45;;;6.20;99.90;;;;;;5050056;28;20048;-74
2022/04/04 00:31:46;;;;;;;4.55;2.90;;;6.20;99.90;;;;;;5065140;28;20044;-73
2022/04/04 00:34:12;;;;;;;4.72;3.20;;;5.90;99.90;;;;;;5050208;28;20324;-74
2022/04/04 00:36:39;;;;;;;4.60;2.95;;;5.90;99.90;;;;;;5016974;28;20277;-73
2022/04/04 00:39:05;;;;;;;4.32;2.78;;;5.90;99.90;;;;;;5017562;28;20228;-74
2022/04/04 00:41:30;;;;;;;5.50;3.65;;;6.10;99.90;;;;;;5015766;28;20142;-73
2022/04/04 00:43:56;;;;;;;6.35;3.00;;;6.40;99.90;;;;;;5066734;28;20049;-73
2022/04/04 00:46:21;;;;;;;7.07;3.08;;;6.20;99.90;;;;;;5017117;28;20037;-74
2022/04/04 00:48:48;;;;;;;4.78;3.30;;;6.00;99.90;;;;;;5016845;28;20049;-73
2022/04/04 00:51:16;;;;;;;5.47;3.20;;;6.00;99.90;;;;;;5016976;28;20048;-74
2022/04/04 00:53:45;;;;;;;4.68;3.03;;;5.90;99.90;;;;;;5016671;28;20044;-73
2022/04/04 00:56:11;;;;;;;5.40;3.50;;;6.00;99.90;;;;;;5032407;28;20037;-72
2022/04/04 00:58:38;;;;;;;6.05;3.20;;;5.80;99.90;;;;;;5015409;28;20108;-72
2022/04/04 01:01:05;;;;;;;7.65;3.78;;;6.00;99.90;;;;;;5017180;28;20212;-72
2022/04/04 01:03:30;;;;;;;5.93;3.35;;;5.80;99.90;;;;;;5031822;28;20048;-73
2022/04/04 01:05:58;;;;;;;4.88;3.60;;;5.80;99.90;;;;;;5049336;28;20041;-73
2022/04/04 01:08:24;;;;;;;5.97;3.72;;;6.00;99.90;;;;;;5016851;28;20045;-73
2022/04/04 01:10:50;;;;;;;6.63;4.20;;;5.80;99.90;;;;;;5033758;28;20083;-73
2022/04/04 01:13:16;;;;;;;6.15;4.55;;;6.00;99.90;;;;;;5032655;28;20037;-73
2022/04/04 01:15:41;;;;;;;8.65;4.03;;;5.90;99.90;;;;;;5038431;28;20181;-73
2022/04/04 01:18:08;;;;;;;7.15;4.03;;;6.00;99.90;;;;;;5056118;28;20120;-73
2022/04/04 01:20:35;;;;;;;5.40;4.25;;;5.80;99.90;;;;;;5037120;28;20037;-73
2022/04/04 01:23:02;;;;;;;6.30;4.00;;;6.00;99.90;;;;;;5001377;28;20045;-72
2022/04/04 01:25:30;;;;;;;7.43;4.10;;;6.00;99.90;;;;;;5041626;28;20225;-75
2022/04/04 01:27:56;;;;;;;8.07;4.38;;;5.90;99.90;;;;;;5039689;28;20041;-72
2022/04/04 01:30:23;;;;;;;8.57;5.50;;;6.10;99.90;;;;;;5039092;28;20083;-73
2022/04/04 01:32:49;;;;;;;6.50;4.80;;;6.00;99.90;;;;;;5073281;28;20068;-74
2022/04/04 01:35:16;;;;;;;8.15;5.60;;;6.00;99.90;;;;;;5040209;28;20375;-73
2022/04/04 01:37:42;;;;;;;8.18;5.57;;;6.10;99.90;;;;;;5073394;28;20211;-74
2022/04/04 01:40:10;;;;;;;9.43;5.88;;;6.30;99.90;;;;;;5023562;28;20030;-73
2022/04/04 01:42:37;;;;;;;8.43;5.78;;;6.30;99.90;;;;;;5040246;28;20100;-73
2022/04/04 01:45:08;;;;;;;9.85;5.97;;;6.20;99.90;;;;;;5022799;28;20053;-73
2022/04/04 01:47:34;;;;;;;10.48;6.18;;;6.20;99.90;;;;;;5024236;28;20140;-73
2022/04/04 01:50:00;;;;;;;13.10;7.38;;;6.20;99.90;;;;;;5039604;28;20100;-73
2022/04/04 01:52:26;;;;;;;10.02;6.68;;;6.50;99.90;;;;;;5073371;28;20072;-73
2022/04/04 01:54:52;;;;;;;9.23;6.80;;;6.50;99.90;;;;;;5040012;28;20033;-72
2022/04/04 01:57:17;;;;;;;12.07;7.15;;;6.40;99.90;;;;;;5073906;28;20029;-73
2022/04/04 01:59:43;;;;;;;10.57;7.25;;;6.30;99.90;;;;;;5055883;28;20025;-73
2022/04/04 02:02:09;;;;;;;12.23;8.32;;;7.00;99.90;;;;;;5024367;28;20111;-72
2022/04/04 02:04:36;;;;;;;11.05;7.35;;;6.30;99.90;;;;;;5038488;28;20045;-73
2022/04/04 02:07:02;;;;;;;12.02;8.52;;;6.30;99.90;;;;;;5023805;28;20048;-72
2022/04/04 02:09:28;;;;;;;13.13;7.85;;;6.40;99.90;;;;;;5039971;28;20087;-72
2022/04/04 02:11:54;;;;;;;12.50;8.27;;;6.30;99.90;;;;;;5039202;28;20037;-73
2022/04/04 02:14:20;;;;;;;12.68;7.78;;;6.40;99.90;;;;;;5039000;28;20048;-72
2022/04/04 02:16:45;;;;;;;13.73;9.57;;;6.30;99.90;;;;;;5039340;28;20040;-72
2022/04/04 02:19:12;;;;;;;14.43;9.63;;;6.50;99.90;;;;;;5040139;28;20331;-72
2022/04/04 02:21:38;;;;;;;14.15;8.95;;;6.50;99.90;;;;;;5006485;28;20029;-72
2022/04/04 02:24:04;;;;;;;14.70;9.10;;;6.80;99.90;;;;;;5023258;28;20091;-72
2022/04/04 02:26:30;;;;;;;14.95;9.75;;;6.60;99.90;;;;;;5038448;28;20049;-72
2022/04/04 02:28:56;;;;;;;15.85;10.05;;;6.40;99.90;;;;;;5054905;28;20343;-73
2022/04/04 02:31:21;;;;;;;14.38;9.20;;;6.60;99.90;;;;;;5039913;28;20228;-73
2022/04/04 02:33:47;;;;;;;13.93;9.60;;;6.60;99.90;;;;;;5076584;28;20061;-73
2022/04/04 02:36:13;;;;;;;13.45;9.77;;;6.50;99.90;;;;;;5026816;28;20068;-73
2022/04/04 02:38:39;;;;;;;14.25;9.65;;;6.40;99.90;;;;;;5026232;28;20047;-73
2022/04/04 02:41:15;;;;;;;15.90;10.05;;;6.60;99.90;;;;;;5043932;28;20216;-72
2022/04/04 02:43:41;;;;;;;13.35;9.73;;;6.80;99.90;;;;;;5008623;28;20034;-73
2022/04/04 02:46:08;;;;;;;26.35;12.02;;;6.50;99.90;;;;;;5011132;28;20193;-73
2022/04/04 02:48:34;;;;;;;16.27;10.95;;;6.40;99.90;;;;;;5026254;28;20025;-73
2022/04/04 02:51:00;;;;;;;15.25;10.45;;;6.40;99.90;;;;;;5043368;28;20323;-73
2022/04/04 02:53:26;;;;;;;14.93;10.98;;;6.40;99.90;;;;;;5005788;28;20216;-74
2022/04/04 02:58:36;;;;;;;16.10;11.18;;;6.60;99.90;;;;;;5032472;28;20048;-73
2022/04/04 03:01:03;;;;;;;17.05;10.90;;;6.60;99.90;;;;;;5043143;28;20192;-73
2022/04/04 03:03:29;;;;;;;17.15;10.98;;;6.60;99.90;;;;;;5075503;28;20336;-73
2022/04/04 03:05:55;;;;;;;17.30;11.70;;;6.70;99.90;;;;;;5026185;28;20124;-73
2022/04/04 03:08:20;;;;;;;16.20;11.05;;;6.50;99.90;;;;;;5026151;28;20060;-74
2022/04/04 03:10:46;;;;;;;16.02;11.23;;;6.70;99.90;;;;;;5043099;28;20051;-73
2022/04/04 03:13:12;;;;;;;17.67;10.77;;;6.50;99.90;;;;;;5042118;28;20052;-73
2022/04/04 03:15:38;;;;;;;16.92;10.77;;;6.80;99.90;;;;;;5042529;28;20022;-73
2022/04/04 03:18:04;;;;;;;16.88;10.23;;;6.90;99.90;;;;;;5026052;28;20025;-72
2022/04/04 03:20:31;;;;;;;15.80;11.70;;;6.90;99.90;;;;;;5040817;28;21492;-73
2022/04/04 03:23:01;;;;;;;18.15;12.60;;;6.70;99.90;;;;;;5042741;28;20036;-74
2022/04/04 03:25:27;;;;;;;15.30;11.15;;;7.10;99.90;;;;;;5042631;28;20083;-73
2022/04/04 03:27:53;;;;;;;20.92;12.10;;;6.70;99.90;;;;;;5042068;28;20283;-73
2022/04/04 03:30:26;;;;;;;17.23;10.77;;;6.70;99.90;;;;;;5057803;28;20032;-73
2022/04/04 03:32:55;;;;;;;18.90;12.00;;;7.00;99.90;;;;;;5062280;28;20049;-71
2022/04/04 03:35:22;;;;;;;16.15;11.07;;;6.80;99.90;;;;;;5042798;28;20061;-72
2022/04/04 03:37:50;;;;;;;15.43;9.70;;;7.00;99.90;;;;;;5025308;28;20041;-73
2022/04/04 03:40:19;;;;;;;18.00;11.77;;;6.90;99.90;;;;;;5025436;28;20041;-72
2022/04/04 03:42:48;;;;;;;20.13;11.80;;;7.00;99.90;;;;;;5024929;28;20220;-74
2022/04/04 03:45:14;;;;;;;19.15;11.50;;;6.90;99.90;;;;;;5025393;28;20041;-73
2022/04/04 03:47:41;;;;;;;19.98;11.82;;;7.10;99.90;;;;;;5042441;28;20041;-71
2022/04/04 03:50:12;;;;;;;19.67;12.50;;;7.10;99.90;;;;;;5025324;28;20320;-73
2022/04/04 03:52:39;;;;;;;17.27;12.40;;;7.10;99.90;;;;;;5041588;28;20030;-71
2022/04/04 03:55:05;;;;;;;17.25;11.65;;;7.10;99.90;;;;;;5025330;28;20034;-71
2022/04/04 03:57:31;;;;;;;19.40;12.15;;;7.20;99.90;;;;;;5024808;28;20037;-72
2022/04/04 03:59:57;;;;;;;19.83;13.20;;;7.20;99.90;;;;;;5024897;28;20111;-72
2022/04/04 04:02:22;;;;;;;19.88;13.05;;;7.10;99.90;;;;;;5058661;28;20259;-73
2022/04/04 04:04:48;;;;;;;21.40;12.70;;;7.50;99.90;;;;;;5040818;28;20316;-72
2022/04/04 04:07:18;;;;;;;22.48;12.18;;;7.30;99.90;;;;;;5042017;28;20028;-74
2022/04/04 04:09:44;;;;;;;20.58;12.57;;;7.20;99.90;;;;;;5042788;28;20048;-72
2022/04/04 04:12:11;;;;;;;20.88;12.68;;;7.40;99.90;;;;;;5041228;28;20097;-72
2022/04/04 04:14:41;;;;;;;18.50;13.23;;;7.40;99.90;;;;;;5041456;28;20040;-73
2022/04/04 04:17:08;;;;;;;22.50;13.32;;;7.40;99.90;;;;;;5040388;28;20184;-72
2022/04/04 04:22:22;;;;;;;22.90;14.13;;;7.60;99.90;;;;;;5041649;28;20033;-73
2022/04/04 04:24:48;;;;;;;25.00;14.77;;;7.60;99.90;;;;;;5041267;28;20136;-73
2022/04/04 04:27:14;;;;;;;26.63;14.00;;;7.70;99.90;;;;;;5038999;28;20037;-72
2022/04/04 04:29:40;;;;;;;24.52;14.93;;;8.10;99.90;;;;;;5004684;28;20057;-73
2022/04/04 04:32:08;;;;;;;22.15;13.80;;;8.00;99.90;;;;;;5035735;28;20033;-73
2022/04/04 04:34:34;;;;;;;24.10;14.60;;;8.30;99.90;;;;;;5040915;28;20049;-73
2022/04/04 04:37:00;;;;;;;21.60;14.00;;;8.40;99.90;;;;;;5022773;28;20045;-74
2022/04/04 04:39:26;;;;;;;24.65;15.25;;;8.50;99.90;;;;;;5041389;28;20393;-74
2022/04/04 04:41:53;;;;;;;28.65;15.77;;;8.70;99.90;;;;;;5040819;28;20203;-75
2022/04/04 04:44:19;;;;;;;22.50;15.05;;;8.80;99.90;;;;;;5041339;28;20057;-74
2022/04/04 04:46:44;;;;;;;23.25;15.02;;;8.80;99.90;;;;;;5040119;28;20138;-74
2022/04/04 04:49:11;;;;;;;26.02;15.02;;;8.70;99.90;;;;;;5024440;28;20045;-74
2022/04/04 04:51:36;;;;;;;24.15;14.57;;;8.80;99.90;;;;;;5007541;28;20111;-73
2022/04/04 04:54:03;;;;;;;23.77;14.77;;;9.00;99.90;;;;;;5040320;28;20033;-76
2022/04/04 04:56:30;;;;;;;22.83;16.10;;;8.80;99.90;;;;;;5040563;28;20088;-76
2022/04/04 04:58:56;;;;;;;27.38;14.43;;;8.80;99.90;;;;;;5041029;28;20037;-78
2022/04/04 05:01:21;;;;;;;21.60;14.30;;;9.10;99.90;;;;;;5023956;28;20060;-75
2022/04/04 05:03:49;;;;;;;22.83;15.00;;;9.00;99.90;;;;;;5024091;28;20262;-76
2022/04/04 05:06:15;;;;;;;25.35;16.08;;;9.40;99.90;;;;;;5040128;28;20041;-75
2022/04/04 05:08:40;;;;;;;24.27;15.07;;;9.10;99.90;;;;;;5004474;28;20041;-76
2022/04/04 05:11:07;;;;;;;21.70;15.07;;;9.70;99.90;;;;;;5040820;28;20056;-79
2022/04/04 05:13:32;;;;;;;25.00;14.77;;;9.60;99.90;;;;;;5024014;28;20108;-76
2022/04/04 05:15:58;;;;;;;28.38;18.27;;;9.40;99.90;;;;;;5057569;28;20224;-78
2022/04/04 05:18:25;;;;;;;22.92;14.93;;;9.60;99.90;;;;;;5056684;28;20324;-78
2022/04/04 05:20:51;;;;;;;25.27;15.18;;;9.60;99.90;;;;;;5023804;28;20044;-75
2022/04/04 05:23:16;;;;;;;23.98;15.93;;;9.90;99.90;;;;;;5022593;28;20033;-76
2022/04/04 05:25:42;;;;;;;25.40;16.75;;;10.00;99.90;;;;;;5039692;28;20355;-77
2022/04/04 05:28:10;;;;;;;25.48;17.52;;;9.70;99.90;;;;;;5022527;28;20136;-75
2022/04/04 05:30:36;;;;;;;26.05;16.48;;;9.70;99.90;;;;;;5039018;28;20045;-77
2022/04/04 05:33:02;;;;;;;26.65;18.00;;;9.50;99.90;;;;;;5039889;28;20057;-75
2022/04/04 05:35:28;;;;;;;26.90;17.00;;;9.50;99.90;;;;;;5057137;28;20249;-77
2022/04/04 05:37:55;;;;;;;24.70;15.93;;;9.70;99.90;;;;;;5022010;28;20116;-76
2022/04/04 05:40:26;;;;;;;29.05;17.77;;;10.20;99.90;;;;;;5039735;28;20036;-79
2022/04/04 05:42:54;;;;;;;21.98;14.35;;;9.80;99.90;;;;;;5039778;28;20049;-77
2022/04/04 05:45:20;;;;;;;29.15;16.77;;;10.20;99.90;;;;;;5024750;28;20068;-76
2022/04/04 05:47:46;;;;;;;25.08;15.65;;;10.20;99.90;;;;;;5073681;28;20065;-77
2022/04/04 05:50:12;;;;;;;26.17;16.00;;;10.60;99.90;;;;;;5056471;28;20036;-76
2022/04/04 05:52:37;;;;;;;17.90;13.50;;;10.30;99.90;;;;;;5038402;28;20037;-76
2022/04/04 05:55:04;;;;;;;21.05;13.30;;;10.30;99.90;;;;;;5040168;28;20231;-74
2022/04/04 05:57:34;;;;;;;19.27;12.68;;;10.10;99.90;;;;;;5040251;28;20025;-77
2022/04/04 06:00:00;;;;;;;16.40;10.15;;;11.00;99.90;;;;;;5022870;28;20167;-76
2022/04/04 06:02:27;;;;;;;15.57;9.85;;;11.00;99.90;;;;;;5039580;28;20029;-77
2022/04/04 06:04:53;;;;;;;13.32;9.30;;;10.30;99.90;;;;;;5023552;28;20105;-76
2022/04/04 06:07:19;;;;;;;16.60;8.98;;;10.40;99.90;;;;;;5043412;28;20041;-75
2022/04/04 06:09:45;;;;;;;11.73;8.25;;;10.50;99.90;;;;;;5076326;28;20220;-77
2022/04/04 06:12:12;;;;;;;13.13;8.18;;;10.30;99.90;;;;;;5043518;28;20041;-74
2022/04/04 06:14:37;;;;;;;7.72;5.88;;;11.20;99.90;;;;;;5043016;28;20326;-77
2022/04/04 06:17:05;;;;;;;9.75;5.78;;;10.10;99.90;;;;;;5060433;28;20032;-75
2022/04/04 06:19:31;;;;;;;9.38;6.18;;;11.20;99.90;;;;;;5059372;28;20037;-75
2022/04/04 06:21:58;;;;;;;8.73;5.95;;;10.70;99.90;;;;;;5025864;28;20144;-77
2022/04/04 06:24:23;;;;;;;6.93;4.40;;;10.00;99.90;;;;;;5076234;28;20045;-76
2022/04/04 06:26:49;;;;;;;7.32;4.90;;;9.80;99.90;;;;;;5042943;28;20075;-76
2022/04/04 06:29:15;;;;;;;6.78;4.78;;;10.10;99.90;;;;;;5043362;28;20045;-78
2022/04/04 06:31:41;;;;;;;10.20;5.05;;;9.60;99.90;;;;;;5041540;28;20037;-77
2022/04/04 06:34:10;;;;;;;8.77;4.95;;;9.60;99.90;;;;;;5026804;28;20061;-77
2022/04/04 06:36:38;;;;;;;9.63;6.10;;;10.50;99.90;;;;;;5011000;28;20055;-78
2022/04/04 06:39:05;;;;;;;10.02;4.80;;;9.90;99.90;;;;;;5058512;28;20224;-78
2022/04/04 06:41:31;;;;;;;5.93;4.15;;;10.80;99.90;;;;;;5076420;28;20100;-78
2022/04/04 06:43:58;;;;;;;8.38;4.60;;;9.30;99.90;;;;;;5009362;28;20156;-79
2022/04/04 06:46:25;;;;;;;6.22;3.92;;;9.30;99.90;;;;;;5042572;28;20105;-79
2022/04/04 06:48:51;;;;;;;10.93;4.40;;;10.90;99.90;;;;;;5058590;28;20055;-78
2022/04/04 06:51:18;;;;;;;7.38;3.88;;;9.50;99.90;;;;;;5043036;28;20041;-75
2022/04/04 06:53:45;;;;;;;7.15;4.60;;;10.20;99.90;;;;;;5025628;28;20056;-77
2022/04/04 06:56:11;;;;;;;9.68;5.50;;;11.00;99.90;;;;;;5039973;28;20106;-75
2022/04/04 06:58:37;;;;;;;8.77;4.53;;;9.30;99.90;;;;;;5024425;28;20331;-77
2022/04/04 07:01:03;;;;;;;7.38;5.55;;;9.60;99.90;;;;;;5040843;28;20036;-78
2022/04/04 07:03:29;;;;;;;9.88;5.82;;;9.30;99.90;;;;;;5076516;28;20037;-77
2022/04/04 07:05:55;;;;;;;8.48;5.18;;;9.60;99.90;;;;;;5009386;28;20033;-76
2022/04/04 07:08:21;;;;;;;8.15;5.35;;;10.80;99.90;;;;;;5025695;28;20041;-78
2022/04/04 07:10:48;;;;;;;9.63;5.25;;;9.60;99.90;;;;;;5026209;28;20044;-76
2022/04/04 07:13:15;;;;;;;7.85;5.97;;;9.70;99.90;;;;;;5026139;28;20095;-75
2022/04/04 07:15:41;;;;;;;11.32;6.75;;;9.50;99.90;;;;;;5009021;28;20061;-76
2022/04/04 07:18:07;;;;;;;9.57;6.55;;;10.50;99.90;;;;;;5023865;28;20053;-76
2022/04/04 07:20:33;;;;;;;9.93;6.43;;;9.60;99.90;;;;;;5025477;28;20029;-76
2022/04/04 07:23:00;;;;;;;9.25;6.85;;;10.60;99.90;;;;;;5025278;28;20275;-77
2022/04/04 07:25:27;;;;;;;9.25;7.18;;;9.70;99.90;;;;;;5058754;28;20025;-77
2022/04/04 07:27:53;;;;;;;9.32;6.82;;;10.30;99.90;;;;;;5041189;28;20049;-77
2022/04/04 07:30:19;;;;;;;10.93;8.20;;;9.70;99.90;;;;;;5009602;28;20096;-77
2022/04/04 07:32:47;;;;;;;14.23;7.93;;;11.30;99.90;;;;;;5025042;28;20058;-76
2022/04/04 07:35:13;;;;;;;14.00;7.97;;;9.70;99.90;;;;;;5075704;28;20063;-77
2022/04/04 07:37:43;;;;;;;14.52;8.27;;;11.50;99.90;;;;;;5025102;28;20026;-77
2022/04/04 07:40:11;;;;;;;16.58;9.15;;;11.10;99.90;;;;;;5057707;28;20212;-77
2022/04/04 07:42:38;;;;;;;13.63;9.48;;;10.10;99.90;;;;;;5075138;28;20212;-75
2022/04/04 07:45:06;;;;;;;15.30;10.40;;;10.00;99.90;;;;;;5025094;28;20096;-76
2022/04/04 07:47:32;;;;;;;13.95;8.98;;;10.10;99.90;;;;;;5041995;28;20071;-76
2022/04/04 07:49:58;;;;;;;17.27;10.38;;;10.30;99.90;;;;;;5022683;28;20263;-77
2022/04/04 07:52:29;;;;;;;13.35;10.82;;;10.30;99.90;;;;;;5041400;28;20056;-77
2022/04/04 07:54:58;;;;;;;19.20;10.80;;;10.30;99.90;;;;;;5021533;28;20037;-77
2022/04/04 07:57:34;;;;;;;15.90;9.43;;;12.20;99.90;;;;;;5036216;28;20036;-78
2022/04/04 08:00:00;;;;;;;12.38;9.23;;;11.20;99.90;;;;;;5007309;28;20029;-77
2022/04/04 08:02:26;;;;;;;14.25;10.20;;;10.40;99.90;;;;;;5042000;28;20037;-78
2022/04/04 08:04:51;;;;;;;15.30;10.20;;;11.00;99.90;;;;;;5009444;28;20267;-79
2022/04/04 08:07:19;;;;;;;12.55;9.70;;;12.50;99.90;;;;;;5041291;28;20077;-78
2022/04/04 08:09:46;;;;;;;19.08;9.98;;;12.30;99.90;;;;;;5024042;28;20094;-79
2022/04/04 08:12:12;;;;;;;12.38;9.07;;;12.10;99.90;;;;;;5008682;28;20041;-78
2022/04/04 08:14:39;;;;;;;15.88;10.23;;;10.70;99.90;;;;;;5039697;28;20258;-78
2022/04/04 08:17:05;;;;;;;16.90;10.27;;;12.80;99.90;;;;;;5040355;28;20100;-78
2022/04/04 08:19:32;;;;;;;12.52;9.90;;;13.10;99.90;;;;;;5024841;28;20040;-77
2022/04/04 08:21:58;;;;;;;16.05;11.02;;;12.00;99.90;;;;;;5040574;28;20045;-76
2022/04/04 08:24:24;;;;;;;12.32;9.30;;;11.20;99.90;;;;;;5025324;28;20116;-79
2022/04/04 08:26:50;;;;;;;14.80;9.25;;;11.40;99.90;;;;;;5039908;28;20041;-77
2022/04/04 08:29:16;;;;;;;12.95;9.38;;;12.70;99.90;;;;;;5012894;28;20032;-77
2022/04/04 08:31:42;;;;;;;12.43;8.35;;;13.00;99.90;;;;;;5024500;28;20044;-77
2022/04/04 08:34:09;;;;;;;16.10;8.73;;;12.20;99.90;;;;;;5038646;28;20251;-77
2022/04/04 08:36:35;;;;;;;10.98;8.68;;;13.60;99.90;;;;;;5024181;28;20041;-76
2022/04/04 08:39:01;;;;;;;11.27;7.50;;;12.90;99.90;;;;;;5041043;28;20029;-77
2022/04/04 08:41:31;;;;;;;11.50;7.68;;;11.80;99.90;;;;;;5057473;28;20039;-77
2022/04/04 08:43:59;;;;;;;10.45;6.60;;;13.30;99.90;;;;;;5023556;28;20029;-77
2022/04/04 08:46:26;;;;;;;11.15;6.45;;;12.50;99.90;;;;;;5035412;28;20071;-77
2022/04/04 08:48:54;;;;;;;10.98;7.13;;;11.60;99.90;;;;;;5034444;28;20086;-76
2022/04/04 08:51:20;;;;;;;10.25;7.07;;;13.80;99.90;;;;;;5067026;28;20116;-76
2022/04/04 08:53:46;;;;;;;9.73;6.63;;;13.90;99.90;;;;;;5067760;28;20107;-76
2022/04/04 08:56:12;;;;;;;6.20;5.28;;;11.90;99.90;;;;;;5049800;28;20037;-77
2022/04/04 08:58:38;;;;;;;6.85;5.22;;;12.60;99.90;;;;;;5033418;28;20033;-77
2022/04/04 09:01:04;;;;;;;7.05;5.30;;;13.80;99.90;;;;;;5018235;28;20042;-77
2022/04/04 09:03:31;;;;;;;7.00;5.18;;;12.30;99.90;;;;;;5018575;28;20038;-78
2022/04/04 09:05:59;;;;;;;5.40;4.65;;;14.60;99.90;;;;;;5001345;28;20235;-77
2022/04/04 09:08:29;;;;;;;7.45;4.28;;;12.00;99.90;;;;;;5033850;28;20084;-77
2022/04/04 09:10:57;;;;;;;7.00;4.60;;;14.30;99.90;;;;;;5017640;28;20091;-77
2022/04/04 09:13:27;;;;;;;6.20;4.50;;;12.10;99.90;;;;;;5051605;28;20053;-77
2022/04/04 09:16:02;;;;;;;5.90;4.38;;;14.80;99.90;;;;;;5033671;28;20041;-77
2022/04/04 09:18:49;;;;;;;7.63;4.20;;;14.50;99.90;;;;;;5033200;28;20045;-78
2022/04/04 09:21:18;;;;;;;6.00;3.97;;;12.00;99.90;;;;;;5014865;28;20033;-76
2022/04/04 09:23:48;;;;;;;3.97;3.20;;;14.70;99.90;;;;;;5014774;28;20263;-76
2022/04/04 09:26:38;;;;;;;6.18;3.80;;;13.70;99.90;;;;;;5021486;28;20041;-76
2022/04/04 09:29:27;;;;;;;5.47;3.90;;;14.00;99.90;;;;;;5029746;28;20355;-77
2022/04/04 09:32:05;;;;;;;4.35;3.78;;;14.90;99.90;;;;;;5033218;28;20065;-77
2022/04/04 09:35:08;;;;;;;4.10;2.97;;;12.20;99.90;;;;;;5051052;28;20057;-77
2022/04/04 09:37:36;;;;;;;7.72;3.80;;;12.20;99.90;;;;;;5067406;28;20101;-77
2022/04/04 09:40:08;;;;;;;4.40;3.30;;;14.10;99.90;;;;;;5033047;28;20095;-77
2022/04/04 09:42:35;;;;;;;4.70;3.42;;;12.10;99.90;;;;;;5067794;28;20346;-77
2022/04/04 09:45:03;;;;;;;7.53;4.60;;;12.70;99.90;;;;;;5045092;28;20403;-77
2022/04/04 09:47:52;;;;;;;5.93;3.78;;;13.10;99.90;;;;;;5033554;28;20045;-77
2022/04/04 09:50:51;;;;;;;4.63;3.75;;;13.90;99.90;;;;;;5026643;28;20298;-77
2022/04/04 09:53:28;;;;;;;5.68;2.95;;;11.90;99.90;;;;;;4985270;28;20095;-77
2022/04/04 09:55:55;;;;;;;4.60;3.15;;;13.70;99.90;;;;;;5067474;28;20641;-76
2022/04/04 09:58:23;;;;;;;6.82;3.20;;;12.20;99.90;;;;;;5049053;28;20041;-76
2022/04/04 10:00:49;;;;;;;5.43;3.80;;;12.30;99.90;;;;;;5016716;28;20064;-78
2022/04/04 10:03:17;;;;;;;4.25;3.30;;;13.50;99.90;;;;;;5034180;28;20095;-77
2022/04/04 10:05:44;;;;;;;6.90;3.45;;;13.00;99.90;;;;;;5051163;28;20045;-77
2022/04/04 10:08:17;;;;;;;5.95;4.28;;;14.00;99.90;;;;;;5032334;28;20037;-77
2022/04/04 10:10:44;;;;;;;6.43;3.72;;;12.40;99.90;;;;;;5050334;28;20270;-77
2022/04/04 10:13:13;;;;;;;8.27;3.92;;;14.90;99.90;;;;;;5016789;28;20046;-77
2022/04/04 10:15:39;;;;;;;6.32;3.28;;;14.40;99.90;;;;;;5034310;28;20247;-77
2022/04/04 10:18:06;;;;;;;6.03;3.70;;;14.70;99.90;;;;;;5016602;28;20238;-77
2022/04/04 10:20:32;;;;;;;5.25;3.20;;;13.70;99.90;;;;;;5016828;28;20030;-76
2022/04/04 10:22:59;;;;;;;4.25;3.53;;;14.40;99.90;;;;;;5066447;28;20041;-76
2022/04/04 10:25:30;;;;;;;5.20;3.70;;;15.00;99.90;;;;;;5033787;28;20045;-76
2022/04/04 10:27:57;;;;;;;6.57;3.50;;;12.40;99.90;;;;;;5047695;28;20073;-76
2022/04/04 10:30:34;;;;;;;4.75;3.45;;;13.10;99.90;;;;;;5032208;28;20041;-76
2022/04/04 10:33:01;;;;;;;7.07;3.80;;;15.70;99.90;;;;;;5050413;28;20379;-76
2022/04/04 10:35:29;;;;;;;6.13;3.70;;;14.20;99.90;;;;;;5033707;28;20258;-77
2022/04/04 10:38:04;;;;;;;6.55;3.50;;;14.20;99.90;;;;;;5048975;28;20041;-76
2022/04/04 10:40:32;;;;;;;6.75;3.67;;;14.30;99.90;;;;;;5016709;28;20469;-76
2022/04/04 10:43:01;;;;;;;5.35;4.32;;;15.80;99.90;;;;;;5017168;28;20340;-76
2022/04/04 10:45:29;;;;;;;6.43;3.63;;;12.90;99.90;;;;;;5033629;28;20037;-77
2022/04/04 10:48:07;;;;;;;6.97;3.80;;;15.80;99.90;;;;;;5032616;28;20045;-77
2022/04/04 10:50:34;;;;;;;5.75;3.45;;;15.80;99.90;;;;;;5032556;28;20112;-77
2022/04/04 10:53:01;;;;;;;3.60;2.90;;;14.30;99.90;;;;;;5018187;28;20343;-76
2022/04/04 10:55:27;;;;;;;4.13;3.22;;;15.10;99.90;;;;;;5052271;28;20332;-76
2022/04/04 10:58:02;;;;;;;5.10;3.03;;;15.60;99.90;;;;;;5045033;28;20075;-76
2022/04/04 11:00:51;;;;;;;;;;;14.80;99.90;;;;;;5072032;28;20037;-77
2022/04/04 11:03:17;;;;;;;3.67;2.92;;;15.70;99.90;;;;;;5020396;28;19937;-77
2022/04/04 11:09:26;;;;;;;4.93;2.75;;;14.00;99.90;;;;;;5036654;28;20095;-76
2022/04/04 11:12:08;;;;;;;3.72;2.50;;;14.70;99.90;;;;;;5036436;28;20037;-76
2022/04/04 11:14:39;;;;;;;2.25;1.90;;;15.30;99.90;;;;;;5036736;28;20041;-75
2022/04/04 11:17:52;;;;;;;2.78;2.30;;;14.60;99.90;;;;;;5020174;28;20232;-75
2022/04/04 11:20:36;;;;;;;3.67;3.00;;;15.90;99.90;;;;;;5011195;28;20332;-77
2022/04/04 11:23:10;;;;;;;3.88;2.10;;;14.10;99.90;;;;;;5062260;28;20303;-76
2022/04/04 11:25:48;;;;;;;6.68;3.22;;;16.20;99.90;;;;;;5053202;28;20051;-76
2022/04/04 11:28:15;;;;;;;3.95;2.00;;;15.20;99.90;;;;;;5035901;28;20041;-77
2022/04/04 11:30:41;;;;;;;3.35;1.90;;;14.10;99.90;;;;;;5069965;28;20048;-76
2022/04/04 11:33:11;;;;;;;5.47;2.25;;;15.80;99.90;;;;;;5018789;28;20061;-77
2022/04/04 11:35:37;;;;;;;4.28;2.35;;;14.80;99.90;;;;;;5069623;28;20053;-76
2022/04/04 11:38:11;;;;;;;3.67;1.90;;;14.00;99.90;;;;;;5020272;28;20210;-77
2022/04/04 11:40:39;;;;;;;2.73;1.87;;;15.60;99.90;;;;;;5036269;28;20344;-76
2022/04/04 11:43:07;;;;;;;3.38;1.85;;;14.30;99.90;;;;;;5069143;28;20311;-76
2022/04/04 11:45:39;;;;;;;2.63;1.63;;;16.30;99.90;;;;;;5052915;28;20053;-76
2022/04/04 11:48:10;;;;;;;4.57;1.50;;;14.50;99.90;;;;;;5019124;28;20033;-77
2022/04/04 11:50:38;;;;;;;2.70;1.30;;;13.30;99.90;;;;;;5052126;28;20045;-78
2022/04/04 11:53:05;;;;;;;2.70;1.15;;;13.30;99.90;;;;;;5035284;28;20045;-76
2022/04/04 11:55:35;;;;;;;1.80;1.30;;;14.20;99.90;;;;;;5015225;28;20400;-76
2022/04/04 11:58:10;;;;;;;2.45;1.13;;;16.50;99.90;;;;;;5019753;28;20026;-77
2022/04/04 12:00:37;;;;;;;1.63;1.15;;;15.50;99.90;;;;;;5019390;28;20620;-76
2022/04/04 12:03:11;;;;;;;1.08;0.98;;;16.80;99.90;;;;;;5018209;28;20069;-78
2022/04/04 12:05:43;;;;;;;3.45;1.10;;;17.30;99.90;;;;;;5036843;28;20049;-76
2022/04/04 12:08:12;;;;;;;1.50;1.40;;;13.80;99.90;;;;;;5052521;28;20049;-76
2022/04/04 12:10:38;;;;;;;4.95;1.48;;;14.00;99.90;;;;;;5068819;28;20048;-77
2022/04/04 12:13:07;;;;;;;1.80;1.00;;;16.20;99.90;;;;;;5068459;28;20359;-76
2022/04/04 12:15:35;;;;;;;1.65;1.00;;;16.90;99.90;;;;;;5020297;28;20049;-77
2022/04/04 12:18:03;;;;;;;1.30;0.77;;;15.00;99.90;;;;;;5035224;28;20080;-75
2022/04/04 12:20:37;;;;;;;1.25;0.85;;;14.20;99.90;;;;;;5019217;28;20112;-76
2022/04/04 12:25:49;;;;;;;1.77;0.90;;;16.20;99.90;;;;;;5021025;28;20255;-75
2022/04/04 12:28:23;;;;;;;1.65;1.00;;;18.00;99.90;;;;;;5018630;28;20049;-75
2022/04/04 12:30:48;;;;;;;1.52;1.23;;;17.40;99.90;;;;;;5051518;28;20045;-75
2022/04/04 12:33:15;;;;;;;1.30;1.10;;;15.70;99.90;;;;;;5051767;28;20126;-75
2022/04/04 12:35:45;;;;;;;1.10;1.00;;;16.80;99.90;;;;;;5068173;28;20037;-75
2022/04/04 12:38:31;;;;;;;4.03;1.45;;;17.80;99.90;;;;;;5034374;28;20033;-75
2022/04/04 12:41:04;;;;;;;2.03;1.30;;;16.00;99.90;;;;;;5018599;28;20282;-76
2022/04/04 12:43:30;;;;;;;2.88;1.63;;;15.70;99.90;;;;;;5035736;28;20048;-75
2022/04/04 12:45:56;;;;;;;2.22;1.70;;;14.90;99.90;;;;;;4998437;28;20124;-75
2022/04/04 12:48:21;;;;;;;2.40;1.23;;;17.50;99.90;;;;;;5025540;28;20045;-75
2022/04/04 12:50:49;;;;;;;2.05;1.40;;;15.80;99.90;;;;;;5035058;28;20205;-75
2022/04/04 12:53:18;;;;;;;1.75;1.30;;;18.20;99.90;;;;;;5017954;28;20045;-75
2022/04/04 12:56:02;;;;;;;1.73;1.40;;;17.70;99.90;;;;;;5034166;28;20098;-75
2022/04/04 12:58:28;;;;;;;2.03;1.58;;;16.10;99.90;;;;;;5035292;28;20052;-75
2022/04/04 13:00:55;;;;;;;3.28;1.90;;;17.80;99.90;;;;;;5034325;28;20037;-75